Time;durP1;ratioP1;P1;durP2;ratioP2;P2;SDS_P1;SDS_P2;PMS_P1;PMS_P2;Temp;Humidity;BMP_temperature;BMP_pressure;BME280_temperature;BME280_humidity;BME280_pressure;Samples;Min_cycle;Max_cycle;Signal;HPM_P1;HPM_P2
2023/06/01 00:00:09;;;;;;;;;;;;;;;16.40;56.44;98808.13;5013982;27;102764;-62
2023/06/01 00:02:41;;;;;;;;;;;;;;;16.39;56.11;98806.47;5017539;27;103235;-63
2023/06/01 00:05:09;;;;;;;;;;;;;;;16.03;57.74;98815.22;5018396;27;103794;-63
2023/06/01 00:07:37;;;;;;;;;;;;;;;15.84;57.98;98804.59;5026143;27;102668;-63
2023/06/01 00:10:05;;;;;;;;;;;;;;;15.80;58.06;98803.22;5022415;27;102702;-63
2023/06/01 00:12:34;;;;;;;;;;;;;;;15.63;58.58;98808.22;5018931;27;102935;-63
2023/06/01 00:15:03;;;;;;;;;;;;;;;15.91;57.18;98801.25;5021775;27;103208;-63
2023/06/01 00:17:32;;;;;;;;;;;;;;;16.05;57.24;98800.81;5015455;27;102724;-63
2023/06/01 00:20:01;;;;;;;;;;;;;;;16.06;57.51;98804.28;5017047;27;103904;-62
2023/06/01 00:22:34;;;;;;;;;;;;;;;15.78;58.25;98800.66;5019104;27;104164;-63
2023/06/01 00:25:01;;;;;;;;;;;;;;;15.75;58.39;98800.13;5021445;27;103295;-62
2023/06/01 00:27:29;;;;;;;;;;;;;;;15.87;57.65;98809.63;5021862;27;103793;-63
2023/06/01 00:29:59;;;;;;;;;;;;;;;15.83;58.32;98808.25;5024837;27;104271;-63
2023/06/01 00:32:26;;;;;;;;;;;;;;;15.97;57.35;98805.16;5017801;27;104167;-62
2023/06/01 00:34:54;;;;;;;;;;;;;;;16.02;57.57;98810.91;5019590;27;102927;-63
2023/06/01 00:37:22;;;;;;;;;;;;;;;16.03;57.72;98807.22;5021920;27;102920;-63
2023/06/01 00:39:50;;;;;;;;;;;;;;;15.94;58.33;98805.44;5028756;27;102642;-62
2023/06/01 00:42:18;;;;;;;;;;;;;;;15.85;58.62;98806.28;5020247;27;104446;-63
2023/06/01 00:44:46;;;;;;;;;;;;;;;15.78;58.89;98807.81;5016043;27;104767;-62
2023/06/01 00:47:15;;;;;;;;;;;;;;;15.71;59.01;98809.38;5014848;27;102715;-62
2023/06/01 00:49:43;;;;;;;;;;;;;;;15.66;59.44;98796.47;5016166;27;104518;-62
2023/06/01 00:52:13;;;;;;;;;;;;;;;15.55;59.70;98809.94;5018994;27;102973;-62
2023/06/01 00:54:40;;;;;;;;;;;;;;;15.05;61.81;98801.13;5022301;27;103145;-62
2023/06/01 00:57:08;;;;;;;;;;;;;;;15.15;61.37;98802.00;5016971;27;102689;-62
2023/06/01 00:59:36;;;;;;;;;;;;;;;14.92;62.35;98801.38;5019953;27;102815;-63
2023/06/01 01:02:05;;;;;;;;;;;;;;;14.95;62.93;98792.28;5015180;27;102971;-62
2023/06/01 01:04:34;;;;;;;;;;;;;;;15.08;62.25;98800.84;5018739;27;103172;-63
2023/06/01 01:07:06;;;;;;;;;;;;;;;15.23;61.08;98796.81;5018428;27;102704;-62
2023/06/01 01:09:36;;;;;;;;;;;;;;;15.00;62.31;98792.72;5023270;27;102800;-63
2023/06/01 01:12:08;;;;;;;;;;;;;;;14.45;64.40;98791.41;5015160;27;103264;-61
2023/06/01 01:14:39;;;;;;;;;;;;;;;14.65;63.83;98792.31;5016644;27;103158;-61
2023/06/01 01:17:10;;;;;;;;;;;;;;;15.08;61.11;98790.19;5016005;27;102806;-61
2023/06/01 01:19:54;;;;;;;;;;;;;;;15.25;60.27;98797.53;5020284;27;103243;-61
2023/06/01 01:22:26;;;;;;;;;;;;;;;14.66;63.77;98794.84;5017577;27;103294;-61
2023/06/01 01:25:06;;;;;;;;;;;;;;;14.67;64.01;98795.69;5020140;27;103364;-61
2023/06/01 01:27:39;;;;;;;;;;;;;;;14.94;62.17;98787.94;5020704;27;103101;-60
2023/06/01 01:30:09;;;;;;;;;;;;;;;14.47;65.02;98795.59;5018938;27;104549;-61
2023/06/01 01:32:38;;;;;;;;;;;;;;;14.57;65.13;98794.81;5016702;27;103186;-61
2023/06/01 01:35:08;;;;;;;;;;;;;;;14.70;64.82;98793.59;5019735;27;103128;-61
2023/06/01 01:37:36;;;;;;;;;;;;;;;14.75;64.16;98790.53;5021964;27;102720;-61
2023/06/01 01:40:06;;;;;;;;;;;;;;;14.71;63.93;98776.66;5022961;27;104160;-61
2023/06/01 01:42:36;;;;;;;;;;;;;;;14.74;64.27;98791.50;5024910;27;103756;-61
2023/06/01 01:45:04;;;;;;;;;;;;;;;14.93;62.34;98786.25;5020619;27;105948;-61
2023/06/01 01:47:35;;;;;;;;;;;;;;;14.90;63.62;98779.41;5021478;27;102665;-61
2023/06/01 01:50:05;;;;;;;;;;;;;;;14.77;63.92;98781.44;5017882;27;102859;-61
2023/06/01 01:52:35;;;;;;;;;;;;;;;14.75;63.84;98782.56;5021512;27;103256;-61
2023/06/01 01:55:04;;;;;;;;;;;;;;;14.65;64.64;98787.00;5015425;27;103300;-61
2023/06/01 01:57:34;;;;;;;;;;;;;;;14.46;65.80;98783.28;5023324;27;102664;-62
2023/06/01 02:00:03;;;;;;;;;;;;;;;14.54;64.94;98787.09;5029319;27;103398;-62
2023/06/01 02:02:40;;;;;;;;;;;;;;;14.68;63.86;98787.56;5016129;27;103375;-62
2023/06/01 02:05:08;;;;;;;;;;;;;;;14.80;63.20;98775.00;5013989;27;104159;-62
2023/06/01 02:07:37;;;;;;;;;;;;;;;14.79;64.05;98776.00;5022746;27;102734;-61
2023/06/01 02:10:06;;;;;;;;;;;;;;;14.22;66.41;98784.53;5021441;27;103065;-62
2023/06/01 02:12:34;;;;;;;;;;;;;;;14.32;65.67;98780.97;5023677;27;106336;-61
2023/06/01 02:15:02;;;;;;;;;;;;;;;14.35;65.36;98785.19;5025152;27;103838;-61
2023/06/01 02:17:29;;;;;;;;;;;;;;;14.18;66.58;98778.63;5019384;27;102754;-61
2023/06/01 02:19:58;;;;;;;;;;;;;;;14.28;65.05;98779.53;5018156;27;103169;-62
2023/06/01 02:22:26;;;;;;;;;;;;;;;14.23;66.08;98776.41;5022117;27;105018;-61
2023/06/01 02:24:55;;;;;;;;;;;;;;;14.07;66.69;98776.03;5021787;27;102986;-61
2023/06/01 02:27:23;;;;;;;;;;;;;;;14.12;66.13;98770.34;5023306;27;102620;-61
2023/06/01 02:29:50;;;;;;;;;;;;;;;14.08;67.07;98767.13;5020053;27;104042;-61
2023/06/01 02:32:18;;;;;;;;;;;;;;;14.04;67.06;98778.97;5021532;27;104325;-62
2023/06/01 02:34:46;;;;;;;;;;;;;;;13.98;67.23;98776.81;5016957;27;103141;-61
2023/06/01 02:37:16;;;;;;;;;;;;;;;14.04;67.54;98781.63;5021271;27;102718;-62
2023/06/01 02:39:45;;;;;;;;;;;;;;;14.19;65.87;98769.69;5023873;27;102883;-61
2023/06/01 02:42:13;;;;;;;;;;;;;;;14.05;67.80;98775.34;5019009;27;104374;-61
2023/06/01 02:44:40;;;;;;;;;;;;;;;13.88;68.35;98773.28;5024703;27;103349;-61
2023/06/01 02:47:09;;;;;;;;;;;;;;;13.66;69.49;98776.06;5020578;27;102614;-61
2023/06/01 02:49:38;;;;;;;;;;;;;;;13.90;67.77;98774.81;5015355;27;103994;-61
2023/06/01 02:52:06;;;;;;;;;;;;;;;13.97;66.85;98769.84;5019391;27;104006;-61
2023/06/01 02:54:35;;;;;;;;;;;;;;;13.75;68.35;98775.28;4996215;27;103574;-62
2023/06/01 02:57:19;;;;;;;;;;;;;;;13.82;67.89;98776.44;5018555;27;103020;-61
2023/06/01 02:59:53;;;;;;;;;;;;;;;13.51;69.63;98787.94;5016145;27;104025;-62
2023/06/01 03:02:21;;;;;;;;;;;;;;;13.42;70.13;98780.75;5021338;27;104203;-61
2023/06/01 03:04:50;;;;;;;;;;;;;;;13.46;70.06;98779.50;5018453;27;104215;-61
2023/06/01 03:07:18;;;;;;;;;;;;;;;13.45;70.09;98781.31;5018917;27;103245;-61
2023/06/01 03:09:53;;;;;;;;;;;;;;;13.59;69.04;98777.50;5019717;27;103301;-61
2023/06/01 03:12:40;;;;;;;;;;;;;;;13.52;69.80;98773.69;5015125;27;103635;-61
2023/06/01 03:15:08;;;;;;;;;;;;;;;13.43;70.32;98774.44;5017137;27;103160;-61
2023/06/01 03:17:36;;;;;;;;;;;;;;;13.45;70.43;98783.97;5012255;27;102686;-61
2023/06/01 03:20:14;;;;;;;;;;;;;;;13.64;68.64;98785.97;5019220;27;102836;-61
2023/06/01 03:22:43;;;;;;;;;;;;;;;13.53;70.08;98786.84;5017419;27;104050;-61
2023/06/01 03:25:13;;;;;;;;;;;;;;;13.60;69.96;98787.16;5022147;27;103426;-61
2023/06/01 03:27:41;;;;;;;;;;;;;;;13.68;69.03;98795.34;5014397;27;102912;-61
2023/06/01 03:30:11;;;;;;;;;;;;;;;13.76;68.22;98792.88;5019632;27;102876;-61
2023/06/01 03:32:42;;;;;;;;;;;;;;;13.81;68.76;98788.06;5020377;27;104326;-61
2023/06/01 03:35:11;;;;;;;;;;;;;;;13.91;67.44;98786.28;5023736;27;104173;-61
2023/06/01 03:37:39;;;;;;;;;;;;;;;14.02;66.77;98788.03;5015924;27;102782;-61
2023/06/01 03:40:10;;;;;;;;;;;;;;;14.02;67.92;98788.88;5017303;27;102716;-61
2023/06/01 03:42:39;;;;;;;;;;;;;;;13.90;68.87;98800.53;5018108;27;105864;-62
2023/06/01 03:45:08;;;;;;;;;;;;;;;13.95;67.97;98787.69;5021029;27;103262;-61
2023/06/01 03:47:35;;;;;;;;;;;;;;;14.04;67.08;98791.41;5018214;27;103238;-61
2023/06/01 03:50:06;;;;;;;;;;;;;;;14.10;67.69;98791.72;5028240;27;103209;-61
2023/06/01 03:52:34;;;;;;;;;;;;;;;13.85;69.31;98792.13;5014113;27;104254;-61
2023/06/01 03:55:04;;;;;;;;;;;;;;;13.85;69.12;98794.78;5014729;27;105009;-61
2023/06/01 03:57:52;;;;;;;;;;;;;;;13.70;70.53;98799.53;5019128;27;102687;-61
2023/06/01 04:00:22;;;;;;;;;;;;;;;13.64;70.18;98801.88;5024903;27;104428;-61
2023/06/01 04:02:54;;;;;;;;;;;;;;;13.69;70.11;98802.34;5018078;27;103157;-61
2023/06/01 04:05:23;;;;;;;;;;;;;;;13.88;68.96;98797.16;5026375;27;103671;-61
2023/06/01 04:07:52;;;;;;;;;;;;;;;14.06;68.33;98798.28;5020324;27;102720;-63
2023/06/01 04:10:20;;;;;;;;;;;;;;;14.12;68.08;98805.72;5029171;27;104773;-60
2023/06/01 04:12:49;;;;;;;;;;;;;;;14.04;69.30;98810.84;5017360;27;104024;-60
2023/06/01 04:15:21;;;;;;;;;;;;;;;13.89;70.80;98801.53;5018661;27;104478;-59
2023/06/01 04:17:49;;;;;;;;;;;;;;;14.11;69.75;98808.50;5019798;27;102771;-59
2023/06/01 04:20:17;;;;;;;;;;;;;;;14.20;69.26;98805.94;5026182;27;103860;-59
2023/06/01 04:22:46;;;;;;;;;;;;;;;14.34;69.00;98805.59;5017990;27;104128;-59
2023/06/01 04:25:16;;;;;;;;;;;;;;;14.35;68.44;98799.31;5015517;27;103435;-59
2023/06/01 04:27:46;;;;;;;;;;;;;;;14.41;69.39;98801.44;5033846;27;102767;-63
2023/06/01 04:30:15;;;;;;;;;;;;;;;14.51;69.13;98802.31;5022844;27;104019;-63
2023/06/01 04:32:48;;;;;;;;;;;;;;;14.60;68.86;98805.16;5014117;27;103219;-64
2023/06/01 04:35:21;;;;;;;;;;;;;;;14.71;67.04;98805.09;5016899;27;103340;-64
2023/06/01 04:37:51;;;;;;;;;;;;;;;14.80;67.12;98802.44;5021405;27;102695;-64
2023/06/01 04:40:19;;;;;;;;;;;;;;;14.83;66.97;98799.53;5018057;27;103896;-57
2023/06/01 04:42:48;;;;;;;;;;;;;;;14.92;68.30;98804.03;5017792;27;104039;-61
2023/06/01 04:45:18;;;;;;;;;;;;;;;15.07;66.70;98801.84;5018145;27;104221;-61
2023/06/01 04:47:48;;;;;;;;;;;;;;;15.16;66.45;98808.16;5028964;27;102617;-61
2023/06/01 04:50:29;;;;;;;;;;;;;;;15.34;66.46;98804.69;5014417;27;103095;-66
2023/06/01 04:52:58;;;;;;;;;;;;;;;15.24;68.45;98805.66;5020984;27;105501;-66
2023/06/01 04:55:26;;;;;;;;;;;;;;;15.17;67.85;98807.16;5026492;27;103169;-66
2023/06/01 04:57:54;;;;;;;;;;;;;;;15.35;67.26;98808.19;5018763;27;102708;-66
2023/06/01 05:00:22;;;;;;;;;;;;;;;15.42;67.48;98811.97;5025771;27;103994;-65
2023/06/01 05:02:52;;;;;;;;;;;;;;;15.47;67.29;98810.63;5025174;27;103309;-65
2023/06/01 05:05:20;;;;;;;;;;;;;;;15.41;67.89;98813.78;5029750;27;103178;-65
2023/06/01 05:07:48;;;;;;;;;;;;;;;15.58;66.62;98813.13;5015777;27;102634;-62
2023/06/01 05:10:17;;;;;;;;;;;;;;;15.52;67.22;98815.53;5021063;27;103796;-62
2023/06/01 05:12:46;;;;;;;;;;;;;;;15.69;66.83;98819.31;5025890;27;104178;-60
2023/06/01 05:15:16;;;;;;;;;;;;;;;15.73;68.21;98816.22;5023570;27;104061;-59
2023/06/01 05:17:44;;;;;;;;;;;;;;;15.83;66.23;98819.72;5028192;27;102716;-59
2023/06/01 05:20:18;;;;;;;;;;;;;;;15.87;67.38;98825.63;5015207;27;104056;-62
2023/06/01 05:22:51;;;;;;;;;;;;;;;15.95;66.08;98831.06;5023733;27;103220;-63
2023/06/01 05:25:20;;;;;;;;;;;;;;;16.11;65.55;98823.38;5019874;27;103224;-63
2023/06/01 05:27:47;;;;;;;;;;;;;;;16.19;65.29;98820.84;5021076;27;102693;-63
2023/06/01 05:30:17;;;;;;;;;;;;;;;16.12;65.52;98819.72;5026749;27;103738;-63
2023/06/01 05:32:47;;;;;;;;;;;;;;;16.27;64.91;98820.09;5020683;27;104445;-63
2023/06/01 05:35:19;;;;;;;;;;;;;;;16.48;63.83;98823.41;5030015;27;103173;-63
2023/06/01 05:37:48;;;;;;;;;;;;;;;16.55;63.99;98825.41;5014930;27;102604;-67
2023/06/01 05:40:16;;;;;;;;;;;;;;;16.43;62.58;98823.84;5016084;27;103639;-67
2023/06/01 05:42:44;;;;;;;;;;;;;;;16.46;63.34;98822.72;5023626;27;103554;-67
2023/06/01 05:45:12;;;;;;;;;;;;;;;16.86;64.86;98820.66;5019326;27;104105;-67
2023/06/01 05:47:40;;;;;;;;;;;;;;;16.62;63.84;98815.81;5028124;27;103018;-67
2023/06/01 05:50:09;;;;;;;;;;;;;;;16.72;62.47;98819.31;5017112;27;103080;-67
2023/06/01 05:52:39;;;;;;;;;;;;;;;16.80;62.90;98810.56;5023575;27;104167;-67
2023/06/01 05:55:07;;;;;;;;;;;;;;;16.89;60.92;98814.19;5025683;27;103148;-67
2023/06/01 05:57:35;;;;;;;;;;;;;;;16.98;60.63;98823.97;5019566;27;102834;-67
2023/06/01 06:00:07;;;;;;;;;;;;;;;17.05;60.08;98811.69;5021711;27;103729;-65
2023/06/01 06:02:42;;;;;;;;;;;;;;;17.19;60.86;98816.53;5019617;27;103168;-67
2023/06/01 06:05:10;;;;;;;;;;;;;;;17.35;60.48;98822.06;5018306;27;103788;-67
2023/06/01 06:07:40;;;;;;;;;;;;;;;17.39;60.26;98821.63;5023505;27;102873;-65
2023/06/01 06:10:08;;;;;;;;;;;;;;;17.24;60.69;98820.44;5015815;27;102725;-66
2023/06/01 06:12:36;;;;;;;;;;;;;;;17.57;60.16;98826.19;5020740;27;103254;-66
2023/06/01 06:15:04;;;;;;;;;;;;;;;17.80;59.11;98816.69;5016826;27;103313;-66
2023/06/01 06:17:32;;;;;;;;;;;;;;;17.89;58.82;98821.97;5023721;27;102534;-66
2023/06/01 06:20:00;;;;;;;;;;;;;;;17.65;59.71;98824.44;5019366;27;104027;-67
2023/06/01 06:22:28;;;;;;;;;;;;;;;18.10;57.86;98818.13;5019843;27;103691;-67
2023/06/01 06:24:57;;;;;;;;;;;;;;;18.41;58.54;98822.03;5017301;27;103194;-63
2023/06/01 06:27:25;;;;;;;;;;;;;;;18.11;58.82;98819.78;5015935;27;102687;-63
2023/06/01 06:29:55;;;;;;;;;;;;;;;18.17;59.13;98821.84;5020890;27;103572;-63
2023/06/01 06:32:22;;;;;;;;;;;;;;;17.94;58.91;98822.34;5023385;27;104102;-63
2023/06/01 06:34:53;;;;;;;;;;;;;;;18.00;59.27;98828.91;5031328;27;103139;-63
2023/06/01 06:37:20;;;;;;;;;;;;;;;18.66;57.22;98823.06;5024568;27;103101;-67
2023/06/01 06:39:51;;;;;;;;;;;;;;;19.11;57.50;98820.94;5028969;27;103886;-67
2023/06/01 06:42:23;;;;;;;;;;;;;;;19.49;56.06;98817.72;5027950;27;103244;-67
2023/06/01 06:44:51;;;;;;;;;;;;;;;19.09;55.85;98814.88;5022479;27;103189;-67
2023/06/01 06:47:19;;;;;;;;;;;;;;;18.99;55.06;98823.06;5020035;27;102736;-67
2023/06/01 06:49:47;;;;;;;;;;;;;;;19.29;55.54;98820.81;5029723;27;103788;-67
2023/06/01 06:52:18;;;;;;;;;;;;;;;19.28;55.10;98822.69;5024861;27;103259;-67
2023/06/01 06:54:45;;;;;;;;;;;;;;;19.25;54.27;98814.13;5021475;27;103137;-67
2023/06/01 06:57:13;;;;;;;;;;;;;;;19.20;56.01;98808.41;5025166;27;102652;-67
2023/06/01 06:59:42;;;;;;;;;;;;;;;19.82;54.94;98815.94;5026119;27;103955;-67
2023/06/01 07:02:11;;;;;;;;;;;;;;;19.76;54.42;98821.13;5016929;27;103270;-67
2023/06/01 07:04:39;;;;;;;;;;;;;;;20.22;52.25;98818.63;5014789;27;103144;-67
2023/06/01 07:07:07;;;;;;;;;;;;;;;20.70;52.07;98816.91;5022849;27;102752;-67
2023/06/01 07:09:35;;;;;;;;;;;;;;;20.81;53.15;98819.22;5024930;27;103646;-65
2023/06/01 07:12:02;;;;;;;;;;;;;;;21.02;50.68;98818.66;5025150;27;103245;-65
2023/06/01 07:14:30;;;;;;;;;;;;;;;20.86;50.87;98818.69;5023590;27;104450;-65
2023/06/01 07:16:59;;;;;;;;;;;;;;;20.78;50.82;98819.56;5019948;27;103010;-65
2023/06/01 07:19:32;;;;;;;;;;;;;;;21.35;49.96;98817.50;5018314;27;103019;-67
2023/06/01 07:22:00;;;;;;;;;;;;;;;21.14;49.57;98810.06;5016899;27;103113;-66
2023/06/01 07:24:28;;;;;;;;;;;;;;;21.12;48.64;98813.94;5007747;27;103561;-66
2023/06/01 07:26:57;;;;;;;;;;;;;;;21.63;48.04;98804.41;5016473;27;103188;-67
2023/06/01 07:29:26;;;;;;;;;;;;;;;21.64;46.13;98806.09;5025836;27;102670;-66
2023/06/01 07:31:54;;;;;;;;;;;;;;;21.66;44.34;98810.28;5017848;27;103731;-66
2023/06/01 07:34:25;;;;;;;;;;;;;;;21.37;45.48;98810.94;5020252;27;103155;-66
2023/06/01 07:36:58;;;;;;;;;;;;;;;22.37;44.25;98799.13;5025589;27;102721;-59
2023/06/01 07:39:43;;;;;;;;;;;;;;;23.02;43.38;98806.50;5023733;27;103609;-63
2023/06/01 07:42:10;;;;;;;;;;;;;;;22.55;42.77;98806.84;5019481;27;103226;-63
2023/06/01 07:44:38;;;;;;;;;;;;;;;22.93;42.93;98799.56;5023018;27;102958;-63
2023/06/01 07:47:06;;;;;;;;;;;;;;;22.42;43.94;98804.81;5016721;27;102739;-63
2023/06/01 07:49:36;;;;;;;;;;;;;;;23.15;43.69;98795.94;5020749;27;102660;-63
2023/06/01 07:52:04;;;;;;;;;;;;;;;23.08;42.62;98797.69;5021818;27;103976;-63
2023/06/01 07:54:32;;;;;;;;;;;;;;;23.29;42.26;98803.16;5020062;27;103776;-63
2023/06/01 07:57:03;;;;;;;;;;;;;;;22.98;42.51;98797.16;5028899;27;103930;-64
2023/06/01 07:59:32;;;;;;;;;;;;;;;22.63;43.05;98805.91;5020137;27;103442;-64
2023/06/01 08:02:00;;;;;;;;;;;;;;;23.76;41.22;98797.28;5024500;27;104015;-64
2023/06/01 08:04:33;;;;;;;;;;;;;;;23.59;41.97;98795.84;5024544;27;103360;-64
2023/06/01 08:07:04;;;;;;;;;;;;;;;23.42;41.26;98792.53;5016720;27;103014;-64
2023/06/01 08:09:34;;;;;;;;;;;;;;;24.54;40.83;98791.75;5017073;27;102860;-64
2023/06/01 08:12:02;;;;;;;;;;;;;;;24.94;39.51;98786.63;5020077;27;103250;-64
2023/06/01 08:14:33;;;;;;;;;;;;;;;25.12;38.39;98795.03;5028513;27;102914;-64
2023/06/01 08:17:02;;;;;;;;;;;;;;;25.78;38.38;98791.53;5020493;27;103250;-64
2023/06/01 08:19:31;;;;;;;;;;;;;;;25.11;38.25;98799.59;5029885;27;104325;-64
2023/06/01 08:21:58;;;;;;;;;;;;;;;25.79;38.42;98787.81;5018038;27;103236;-64
2023/06/01 08:24:32;;;;;;;;;;;;;;;26.56;37.56;98786.38;5021395;27;103166;-63
2023/06/01 08:27:05;;;;;;;;;;;;;;;26.96;37.71;98778.00;5012757;27;102700;-64
2023/06/01 08:29:32;;;;;;;;;;;;;;;27.36;35.44;98770.53;5024167;27;102622;-64
2023/06/01 08:32:09;;;;;;;;;;;;;;;25.85;37.88;98781.53;5019500;27;103248;-63
2023/06/01 08:34:39;;;;;;;;;;;;;;;25.64;38.23;98784.44;5025677;27;103287;-64
2023/06/01 08:37:07;;;;;;;;;;;;;;;27.36;37.24;98775.13;5009292;27;102622;-63
2023/06/01 08:39:36;;;;;;;;;;;;;;;28.14;35.52;98763.81;5012230;27;102751;-64
2023/06/01 08:42:07;;;;;;;;;;;;;;;27.70;36.07;98769.34;5013572;27;103602;-63
2023/06/01 08:44:41;;;;;;;;;;;;;;;28.08;35.09;98772.84;5023050;27;103129;-64
2023/06/01 08:47:09;;;;;;;;;;;;;;;28.53;33.95;98773.50;5025557;27;102569;-64
2023/06/01 08:49:38;;;;;;;;;;;;;;;28.25;36.79;98764.13;5004133;27;102718;-64
2023/06/01 08:52:09;;;;;;;;;;;;;;;26.57;36.34;98767.22;5015092;27;104037;-64
2023/06/01 08:54:41;;;;;;;;;;;;;;;26.26;35.82;98775.16;5026295;27;103161;-64
2023/06/01 08:57:09;;;;;;;;;;;;;;;28.15;34.72;98764.66;5028403;27;102581;-64
2023/06/01 08:59:38;;;;;;;;;;;;;;;28.70;34.34;98758.31;5029601;27;102848;-64
2023/06/01 09:02:07;;;;;;;;;;;;;;;28.44;35.53;98768.56;5026743;27;104417;-63
2023/06/01 09:04:37;;;;;;;;;;;;;;;28.77;33.99;98757.41;5015295;27;103146;-64
2023/06/01 09:08:32;;;;;;;5.13;3.80;;;;;;;29.75;34.06;98761.63;5120811;27;102513;-61
2023/06/01 09:11:00;;;;;;;6.38;4.13;;;;;;;29.62;35.30;98751.75;5113023;27;102786;-63
2023/06/01 09:13:31;;;;;;;8.38;4.00;;;;;;;29.88;35.16;98750.56;5049547;27;103739;-64
2023/06/01 09:15:59;;;;;;;5.95;3.72;;;;;;;27.92;36.38;98754.34;5037544;27;103197;-63
2023/06/01 09:18:28;;;;;;;3.83;3.50;;;;;;;29.46;35.09;98752.41;5072007;27;102749;-63
2023/06/01 09:21:11;;;;;;;4.90;3.90;;;;;;;30.00;34.42;98762.31;5072513;27;102896;-64
2023/06/01 09:23:42;;;;;;;8.32;3.45;;;;;;;30.32;32.79;98760.09;5055365;27;104103;-64
2023/06/01 09:26:13;;;;;;;9.15;5.10;;;;;;;27.25;35.69;98756.81;5071692;27;103378;-64
2023/06/01 09:28:55;;;;;;;5.85;4.00;;;;;;;27.44;37.66;98762.19;5053806;27;102785;-63
2023/06/01 09:31:40;;;;;;;5.45;3.83;;;;;;;29.81;36.17;98755.28;5076124;27;104036;-63
2023/06/01 09:34:11;;;;;;;5.72;4.20;;;;;;;29.59;35.06;98757.63;5069685;27;103359;-63
2023/06/01 09:36:39;;;;;;;5.22;3.60;;;;;;;29.59;32.51;98754.09;5074450;27;103265;-64
2023/06/01 09:39:10;;;;;;;5.72;4.60;;;;;;;29.17;32.55;98745.00;5054722;27;102666;-63
2023/06/01 09:41:52;;;;;;;4.50;3.88;;;;;;;29.16;34.50;98746.91;5077203;27;103232;-64
2023/06/01 09:44:28;;;;;;;6.50;3.95;;;;;;;27.75;34.81;98753.22;5075466;27;104458;-64
2023/06/01 09:46:57;;;;;;;4.60;3.80;;;;;;;29.85;33.72;98745.56;5052548;27;103196;-64
2023/06/01 09:49:29;;;;;;;5.32;3.85;;;;;;;30.43;33.27;98743.78;5070810;27;102619;-64
2023/06/01 09:52:12;;;;;;;5.65;4.43;;;;;;;30.76;31.24;98732.28;5074699;27;104036;-64
2023/06/01 09:54:44;;;;;;;7.28;4.18;;;;;;;29.84;32.95;98733.00;5074959;27;103013;-63
2023/06/01 09:57:13;;;;;;;4.65;4.00;;;;;;;28.35;34.80;98726.47;5056026;27;103211;-64
2023/06/01 09:59:43;;;;;;;8.30;4.75;;;;;;;28.64;34.12;98726.59;5054064;27;103347;-64
2023/06/01 10:02:16;;;;;;;5.65;4.68;;;;;;;28.37;33.68;98724.34;5075208;27;103779;-64
2023/06/01 10:04:49;;;;;;;8.52;5.07;;;;;;;28.72;34.98;98722.72;5055984;27;103290;-64
2023/06/01 10:07:18;;;;;;;4.88;4.07;;;;;;;27.65;35.20;98730.34;5050842;27;103419;-64
2023/06/01 10:17:18;;;;;;;7.32;3.97;;;;;;;29.33;33.74;98719.94;5073362;27;103263;-65
2023/06/01 10:19:46;;;;;;;5.78;3.80;;;;;;;29.71;33.84;98723.13;5037362;27;103297;-65
2023/06/01 10:22:18;;;;;;;4.13;3.55;;;;;;;29.70;33.27;98716.00;5058754;27;102705;-65
2023/06/01 10:24:46;;;;;;;5.97;4.18;;;;;;;30.36;32.34;98710.34;5058186;27;103012;-65
2023/06/01 10:27:20;;;;;;;4.47;3.47;;;;;;;30.79;32.23;98704.53;5048403;27;103311;-64
2023/06/01 10:29:49;;;;;;;5.77;4.83;;;;;;;31.40;31.51;98705.78;5058201;27;103190;-65
2023/06/01 10:32:43;;;;;;;5.65;4.32;;;;;;;31.71;31.45;98696.28;5060067;27;103090;-66
2023/06/01 10:35:52;;;;;;;4.93;4.20;;;;;;;31.79;29.48;98696.69;5051110;27;103834;-63
2023/06/01 10:38:27;;;;;;;6.07;4.18;;;;;;;31.77;30.53;98700.75;5054770;27;103297;-63
2023/06/01 10:41:31;;;;;;;4.32;3.92;;;;;;;31.80;28.78;98694.81;5050991;27;103316;-64
2023/06/01 10:44:01;;;;;;;5.10;4.53;;;;;;;30.65;29.99;98696.84;5050014;27;102673;-64
2023/06/01 10:46:37;;;;;;;4.95;4.45;;;;;;;27.65;32.47;98701.28;5033746;27;102711;-64
2023/06/01 10:49:05;;;;;;;5.40;4.07;;;;;;;29.68;31.68;98693.66;5046570;27;104638;-64
2023/06/01 10:51:33;;;;;;;5.35;3.88;;;;;;;31.04;29.56;98682.44;5036789;27;103153;-64
2023/06/01 10:54:30;;;;;;;5.43;4.00;;;;;;;31.64;30.10;98684.69;5048140;27;102756;-64
2023/06/01 10:57:24;;;;;;;6.45;4.03;;;;;;;31.52;29.22;98682.03;5053151;27;102973;-64
2023/06/01 11:00:14;;;;;;;5.20;3.97;;;;;;;31.96;28.24;98680.31;5054504;27;103279;-64
2023/06/01 11:02:48;;;;;;;4.55;4.00;;;;;;;30.22;29.07;98681.69;5030121;27;103151;-64
2023/06/01 11:05:40;;;;;;;5.30;4.13;;;;;;;31.61;28.97;98679.72;5052509;27;103141;-64
2023/06/01 11:08:09;;;;;;;5.55;4.45;;;;;;;32.03;29.52;98670.91;5056892;27;102708;-64
2023/06/01 11:10:58;;;;;;;5.97;4.30;;;;;;;30.77;30.18;98663.03;5054307;27;103300;-64
2023/06/01 11:13:29;;;;;;;5.82;4.15;;;;;;;29.76;31.19;98668.81;5049349;27;103220;-64
2023/06/01 11:16:30;;;;;;;6.38;4.07;;;;;;;28.88;32.29;98670.50;5057190;27;103074;-65
2023/06/01 11:19:00;;;;;;;6.47;4.00;;;;;;;28.69;33.01;98668.81;5029714;27;104123;-64
2023/06/01 11:21:33;;;;;;;5.43;3.80;;;;;;;29.19;31.05;98670.25;5041613;27;103960;-65
2023/06/01 11:24:04;;;;;;;8.80;4.50;;;;;;;29.51;29.87;98667.31;5042239;27;103177;-64
2023/06/01 11:26:34;;;;;;;4.97;4.30;;;;;;;28.28;31.11;98665.91;5039725;27;102781;-64
2023/06/01 11:29:19;;;;;;;5.78;3.90;;;;;;;29.13;30.82;98664.94;5051113;27;103817;-64
2023/06/01 11:31:50;;;;;;;4.50;3.97;;;;;;;29.12;30.98;98664.09;5026608;27;104299;-64
2023/06/01 11:34:20;;;;;;;4.75;4.10;;;;;;;29.77;31.17;98656.03;5048345;27;103438;-65
2023/06/01 11:36:51;;;;;;;6.38;4.18;;;;;;;30.26;32.08;98655.59;5046894;27;102711;-61
2023/06/01 11:39:22;;;;;;;5.95;3.88;;;;;;;31.19;31.49;98647.25;5054394;27;103043;-65
2023/06/01 11:41:52;;;;;;;5.57;4.35;;;;;;;30.05;32.46;98655.38;5056038;27;103534;-65
2023/06/01 11:44:22;;;;;;;4.70;3.20;;;;;;;30.40;32.59;98657.03;5037094;27;103340;-65
2023/06/01 11:46:56;;;;;;;4.85;4.30;;;;;;;30.62;32.05;98635.47;5059439;27;102897;-65
2023/06/01 11:49:24;;;;;;;7.13;4.00;;;;;;;28.34;33.53;98655.00;5058309;27;102682;-65
2023/06/01 11:51:53;;;;;;;7.45;3.90;;;;;;;29.35;32.22;98651.66;5057733;27;103283;-65
2023/06/01 11:54:29;;;;;;;5.82;4.40;;;;;;;29.66;30.89;98640.50;5058035;27;103246;-65
2023/06/01 11:56:57;;;;;;;6.20;4.32;;;;;;;30.29;29.37;98630.59;5041609;27;103675;-65
2023/06/01 11:59:28;;;;;;;5.22;3.95;;;;;;;30.50;29.66;98622.91;5032952;27;103057;-65
2023/06/01 12:01:57;;;;;;;4.32;3.90;;;;;;;30.61;28.56;98630.22;5038982;27;103608;-65
2023/06/01 12:04:27;;;;;;;6.35;4.40;;;;;;;31.09;28.25;98627.97;5047919;27;103194;-65
2023/06/01 12:07:06;;;;;;;5.20;3.75;;;;;;;29.39;31.80;98636.56;5056681;27;103092;-65
2023/06/01 12:09:36;;;;;;;5.00;4.47;;;;;;;29.72;31.27;98621.34;5034927;27;104174;-66
2023/06/01 12:12:05;;;;;;;4.68;3.78;;;;;;;29.43;32.38;98618.69;5053005;27;103356;-65
2023/06/01 12:14:33;;;;;;;4.32;3.50;;;;;;;30.26;31.46;98625.63;5040022;27;103358;-65
2023/06/01 12:17:04;;;;;;;5.13;3.95;;;;;;;30.90;31.20;98623.75;5060591;27;103152;-65
2023/06/01 12:19:35;;;;;;;5.60;4.20;;;;;;;28.44;33.73;98616.41;5039521;27;104067;-65
2023/06/01 12:22:05;;;;;;;6.13;4.00;;;;;;;29.01;32.73;98615.94;5058567;27;104077;-65
2023/06/01 12:24:34;;;;;;;4.55;3.80;;;;;;;28.10;34.99;98621.38;5056957;27;103171;-65
2023/06/01 12:27:03;;;;;;;5.97;3.83;;;;;;;27.98;33.99;98616.91;5049695;27;102681;-65
2023/06/01 12:29:38;;;;;;;3.75;2.80;;;;;;;30.25;32.22;98610.38;5045416;27;104232;-65
2023/06/01 12:32:09;;;;;;;5.30;3.60;;;;;;;30.14;31.11;98607.66;5043530;27;104190;-67
2023/06/01 12:34:39;;;;;;;7.50;3.45;;;;;;;29.49;32.35;98601.44;5031938;27;103242;-66
2023/06/01 12:37:14;;;;;;;5.88;3.83;;;;;;;29.08;33.33;98607.69;5047617;27;102648;-66
2023/06/01 12:39:42;;;;;;;5.82;3.90;;;;;;;28.86;33.88;98607.34;5052625;27;104034;-66
2023/06/01 12:42:12;;;;;;;5.45;3.83;;;;;;;28.21;34.82;98599.97;5053359;27;103313;-66